createdAt,value
2018-08-31T00:02:27.207Z,80.42
2018-08-31T00:05:06.851Z,80.01
2018-08-31T00:07:58.418Z,80.62
2018-08-31T00:10:45.125Z,80.48
2018-08-31T00:13:13.523Z,79.42
2018-08-31T00:15:41.891Z,79.46
2018-08-31T00:18:10.259Z,79.85
2018-08-31T00:20:39.739Z,79.67
2018-08-31T00:23:08.428Z,80.08
2018-08-31T00:26:14.647Z,79.87
2018-08-31T00:29:08.711Z,80.49
2018-08-31T00:33:52.599Z,79.86
2018-08-31T00:37:37.436Z,80.31
2018-08-31T00:40:17.252Z,79.59
2018-08-31T00:43:38.915Z,79.45
2018-08-31T00:46:07.297Z,79.79
2018-08-31T00:48:35.720Z,79.55
2018-08-31T00:51:04.169Z,80.36
2018-08-31T00:53:32.563Z,80.48
2018-08-31T00:56:00.932Z,79.83
2018-08-31T00:58:29.323Z,80.57
2018-08-31T01:00:57.715Z,80.40
2018-08-31T01:03:26.058Z,80.03
2018-08-31T01:05:54.447Z,80.55
2018-08-31T01:08:22.841Z,80.41
2018-08-31T01:10:51.191Z,80.53
2018-08-31T01:13:19.545Z,80.03
2018-08-31T01:15:47.891Z,80.41
2018-08-31T01:18:16.284Z,80.52
2018-08-31T01:20:44.643Z,80.78
2018-08-31T01:23:13.022Z,80.74
2018-08-31T01:25:41.359Z,80.99
2018-08-31T01:28:09.732Z,80.56
2018-08-31T01:30:38.132Z,79.96
2018-08-31T01:33:06.511Z,80.75
2018-08-31T01:35:34.908Z,80.70
2018-08-31T01:38:03.267Z,79.99
2018-08-31T01:40:31.627Z,81.25
2018-08-31T01:42:59.993Z,80.49
2018-08-31T01:45:28.340Z,80.54
2018-08-31T01:47:56.689Z,80.93
2018-08-31T01:50:25.061Z,81.11
2018-08-31T01:52:53.442Z,81.25
2018-08-31T01:55:31.464Z,81.59
2018-08-31T01:58:00.751Z,81.17
2018-08-31T02:00:29.348Z,81.38
2018-08-31T02:02:57.709Z,81.50
2018-08-31T02:05:26.063Z,81.67
2018-08-31T02:07:54.416Z,81.63
2018-08-31T02:10:22.795Z,81.88
2018-08-31T02:12:51.158Z,81.71
2018-08-31T02:15:19.520Z,81.75
2018-08-31T02:17:47.888Z,82.11
2018-08-31T02:20:16.703Z,81.36
2018-08-31T02:22:45.051Z,82.38
2018-08-31T02:25:13.994Z,81.53
2018-08-31T02:27:42.355Z,81.02
2018-08-31T02:30:10.736Z,82.34
2018-08-31T02:32:39.130Z,82.40
2018-08-31T02:35:07.528Z,82.22
2018-08-31T02:37:36.010Z,82.55
2018-08-31T02:40:04.372Z,82.80
2018-08-31T02:42:32.731Z,82.98
2018-08-31T02:45:01.068Z,82.61
2018-08-31T02:47:29.399Z,82.96
2018-08-31T02:49:57.813Z,82.63
2018-08-31T02:52:26.182Z,82.72
2018-08-31T02:54:54.540Z,82.72
2018-08-31T02:57:22.915Z,83.71
2018-08-31T02:59:51.285Z,83.43
2018-08-31T03:02:19.677Z,82.67
2018-08-31T03:04:48.031Z,83.45
2018-08-31T03:07:16.393Z,83.10
2018-08-31T03:09:44.789Z,83.60
2018-08-31T03:12:13.152Z,83.46
2018-08-31T03:14:41.497Z,83.77
2018-08-31T03:17:09.926Z,83.39
2018-08-31T03:19:38.289Z,83.25
2018-08-31T03:22:06.633Z,83.03
2018-08-31T03:24:35.116Z,83.39
2018-08-31T03:27:03.470Z,83.23
2018-08-31T03:29:31.810Z,83.61
2018-08-31T03:32:00.308Z,83.50
2018-08-31T03:34:28.730Z,83.35
2018-08-31T03:36:57.098Z,83.14
2018-08-31T03:39:25.488Z,83.02
2018-08-31T03:41:53.818Z,83.15
2018-08-31T03:44:22.224Z,83.46
2018-08-31T03:46:50.603Z,83.20
2018-08-31T03:49:18.978Z,83.48
2018-08-31T03:51:47.334Z,82.81
2018-08-31T03:54:15.719Z,83.03
2018-08-31T03:56:44.072Z,83.60
2018-08-31T03:59:12.429Z,83.73
2018-08-31T04:01:40.824Z,83.87
2018-08-31T04:04:09.203Z,83.45
2018-08-31T04:06:37.569Z,83.82
2018-08-31T04:09:07.679Z,83.59
2018-08-31T04:11:36.037Z,83.48
2018-08-31T04:14:04.490Z,84.39
2018-08-31T04:16:32.837Z,84.46
2018-08-31T04:19:06.521Z,83.45
2018-08-31T04:21:35.973Z,83.59
2018-08-31T04:24:04.407Z,84.46
2018-08-31T04:26:32.766Z,83.89
2018-08-31T04:29:01.116Z,83.90
2018-08-31T04:31:29.493Z,84.39
2018-08-31T04:33:57.939Z,83.80
2018-08-31T04:36:26.269Z,83.39
2018-08-31T04:38:54.635Z,84.40
2018-08-31T04:41:23.027Z,84.25
2018-08-31T04:43:51.415Z,83.95
2018-08-31T04:46:19.790Z,83.71
2018-08-31T04:48:48.156Z,83.82
2018-08-31T04:51:16.630Z,84.11
2018-08-31T04:53:45.006Z,84.13
2018-08-31T04:56:13.590Z,84.01
2018-08-31T04:58:42.017Z,84.06
2018-08-31T05:01:10.415Z,83.81
2018-08-31T05:03:39.012Z,83.59
2018-08-31T05:06:07.414Z,83.75
2018-08-31T05:08:35.800Z,83.95
2018-08-31T05:11:04.209Z,83.24
2018-08-31T05:13:32.609Z,82.80
2018-08-31T05:16:01.134Z,83.28
2018-08-31T05:18:29.500Z,82.27
2018-08-31T05:20:58.002Z,82.53
2018-08-31T05:23:26.501Z,81.99
2018-08-31T05:25:54.979Z,81.99
2018-08-31T05:28:23.405Z,82.24
2018-08-31T05:30:51.752Z,81.79
2018-08-31T05:33:20.125Z,82.11
2018-08-31T05:35:48.468Z,81.83
2018-08-31T05:38:16.905Z,82.18
2018-08-31T05:40:45.266Z,81.31
2018-08-31T05:43:13.613Z,81.26
2018-08-31T05:45:41.958Z,81.11
2018-08-31T05:48:10.327Z,80.43
2018-08-31T05:50:38.712Z,80.28
2018-08-31T05:53:07.089Z,80.54
2018-08-31T05:55:35.460Z,80.32
2018-08-31T05:58:03.822Z,80.10
2018-08-31T06:00:32.190Z,79.48
2018-08-31T06:03:00.575Z,79.32
2018-08-31T06:05:28.932Z,79.02
2018-08-31T06:07:57.328Z,78.93
2018-08-31T06:10:25.659Z,78.77
2018-08-31T06:12:54.084Z,78.85
2018-08-31T06:15:22.457Z,79.07
2018-08-31T06:17:50.801Z,78.74
2018-08-31T06:20:19.196Z,78.75
2018-08-31T06:22:47.540Z,78.91
2018-08-31T06:25:15.888Z,79.13
2018-08-31T06:27:44.211Z,78.84
2018-08-31T06:30:12.735Z,78.14
2018-08-31T06:32:41.193Z,78.63
2018-08-31T06:35:09.526Z,78.16
2018-08-31T06:37:37.888Z,78.04
2018-08-31T06:40:06.516Z,77.83
2018-08-31T06:42:34.950Z,76.43
2018-08-31T06:45:03.350Z,76.94
2018-08-31T06:47:31.751Z,76.09
2018-08-31T06:50:00.088Z,76.27
2018-08-31T06:52:28.533Z,75.08
2018-08-31T06:54:56.923Z,76.21
2018-08-31T07:00:17.567Z,75.76
2018-08-31T07:02:46.585Z,75.84
2018-08-31T07:05:14.921Z,75.95
2018-08-31T07:07:43.246Z,75.06
2018-08-31T07:10:12.348Z,75.50
2018-08-31T07:12:41.942Z,76.63
2018-08-31T07:15:10.978Z,75.26
2018-08-31T07:17:39.991Z,75.82
2018-08-31T07:20:08.627Z,76.49
2018-08-31T07:22:38.064Z,76.28
2018-08-31T07:25:06.955Z,75.93
2018-08-31T07:27:35.335Z,76.17
2018-08-31T07:30:03.996Z,75.69
2018-08-31T07:32:32.311Z,76.53
2018-08-31T07:35:00.917Z,75.49
2018-08-31T07:37:29.704Z,75.80
2018-08-31T07:39:58.039Z,75.59
2018-08-31T07:42:26.933Z,75.91
2018-08-31T07:44:55.630Z,75.34
2018-08-31T07:47:24.287Z,75.47
2018-08-31T07:49:52.622Z,74.63
2018-08-31T07:52:21.072Z,75.04
2018-08-31T07:54:50.025Z,74.21
2018-08-31T07:57:19.304Z,73.62
2018-08-31T07:59:49.361Z,73.46
2018-08-31T08:02:18.284Z,72.05
2018-08-31T08:04:47.256Z,71.58
2018-08-31T08:07:15.569Z,71.67
2018-08-31T08:09:43.896Z,71.78
2018-08-31T08:12:12.807Z,71.11
2018-08-31T08:14:42.029Z,71.09
2018-08-31T08:17:11.484Z,70.93
2018-08-31T08:19:39.915Z,71.65
2018-08-31T08:22:08.550Z,71.62
2018-08-31T08:24:37.698Z,70.76
2018-08-31T08:27:06.017Z,71.18
2018-08-31T08:29:34.365Z,71.16
2018-08-31T08:32:02.774Z,70.81
2018-08-31T08:34:31.116Z,70.56
2018-08-31T08:36:59.441Z,70.56
2018-08-31T08:39:29.323Z,70.70
2018-08-31T08:41:57.670Z,70.53
2018-08-31T08:44:27.110Z,71.71
2018-08-31T08:46:55.437Z,70.79
2018-08-31T08:49:23.742Z,70.41
2018-08-31T08:51:52.107Z,70.47
2018-08-31T08:54:20.811Z,69.84
2018-08-31T08:56:49.124Z,71.04
2018-08-31T08:59:18.022Z,70.21
2018-08-31T09:01:47.555Z,69.60
2018-08-31T09:04:15.880Z,69.12
2018-08-31T09:06:44.327Z,70.21
2018-08-31T09:09:12.662Z,69.58
2018-08-31T09:11:41.004Z,68.14
2018-08-31T09:14:09.623Z,68.85
2018-08-31T09:16:37.977Z,67.58
2018-08-31T09:19:06.384Z,68.20
2018-08-31T09:21:34.790Z,67.75
2018-08-31T09:24:03.245Z,67.74
2018-08-31T09:26:31.572Z,66.19
2018-08-31T09:28:59.877Z,66.23
2018-08-31T09:31:28.229Z,65.08
2018-08-31T09:33:57.458Z,64.98
2018-08-31T09:36:25.898Z,61.82
2018-08-31T09:38:54.244Z,60.98
2018-08-31T09:41:22.983Z,60.32
2018-08-31T09:43:52.035Z,58.71
2018-08-31T09:46:20.380Z,60.53
2018-08-31T09:48:49.008Z,56.22
2018-08-31T09:51:17.319Z,56.00
2018-08-31T09:53:45.622Z,57.74
2018-08-31T09:56:14.553Z,58.24
2018-08-31T09:58:42.889Z,54.26
2018-08-31T10:01:16.595Z,54.65
2018-08-31T10:03:47.196Z,55.09
2018-08-31T10:06:15.539Z,55.60
2018-08-31T10:08:43.948Z,54.48
2018-08-31T10:11:12.620Z,55.61
2018-08-31T10:13:40.986Z,56.54
2018-08-31T10:16:09.789Z,55.73
2018-08-31T10:18:38.930Z,56.04
2018-08-31T10:21:08.026Z,55.75
2018-08-31T10:23:37.275Z,55.76
2018-08-31T10:26:05.788Z,54.03
2018-08-31T10:28:34.202Z,55.28
2018-08-31T10:31:02.607Z,55.35
2018-08-31T10:33:31.098Z,55.52
2018-08-31T10:35:59.478Z,56.09
2018-08-31T10:38:27.909Z,55.35
2018-08-31T10:40:56.336Z,56.22
2018-08-31T10:43:25.290Z,55.55
2018-08-31T10:45:53.655Z,57.51
2018-08-31T10:48:22.137Z,56.48
2018-08-31T10:50:50.529Z,56.24
2018-08-31T10:53:18.941Z,57.41
2018-08-31T10:55:47.304Z,56.24
2018-08-31T10:58:15.647Z,57.20
2018-08-31T11:00:44.009Z,56.57
2018-08-31T11:03:12.357Z,56.85
2018-08-31T11:05:40.693Z,55.98
2018-08-31T11:08:09.058Z,57.24
2018-08-31T11:10:37.422Z,55.91
2018-08-31T11:13:06.047Z,55.40
2018-08-31T11:15:34.328Z,55.45
2018-08-31T11:18:02.743Z,57.07
2018-08-31T11:20:31.143Z,56.34
2018-08-31T11:22:59.547Z,55.95
2018-08-31T11:25:27.973Z,56.91
2018-08-31T11:27:56.479Z,57.71
2018-08-31T11:30:24.726Z,57.48
2018-08-31T11:32:53.088Z,58.56
2018-08-31T11:35:21.495Z,56.92
2018-08-31T11:37:49.842Z,57.02
2018-08-31T11:40:19.619Z,57.51
2018-08-31T11:42:47.990Z,57.71
2018-08-31T11:45:16.335Z,56.98
2018-08-31T11:47:44.689Z,57.32
2018-08-31T11:50:13.125Z,58.31
2018-08-31T11:52:41.474Z,57.83
2018-08-31T11:55:09.819Z,57.91
2018-08-31T11:57:38.198Z,58.34
2018-08-31T12:00:06.749Z,58.18
2018-08-31T12:02:35.676Z,57.96
2018-08-31T12:05:04.083Z,57.41
2018-08-31T12:07:32.467Z,57.55
2018-08-31T12:10:00.830Z,57.84
2018-08-31T12:12:29.248Z,58.21
2018-08-31T12:14:57.639Z,58.25
2018-08-31T12:17:26.034Z,56.26
2018-08-31T12:19:54.393Z,57.04
2018-08-31T12:22:22.726Z,56.73
2018-08-31T12:24:51.073Z,58.19
2018-08-31T12:27:19.424Z,56.37
2018-08-31T12:29:47.748Z,57.69
2018-08-31T12:32:16.173Z,57.70
2018-08-31T12:34:44.538Z,56.96
2018-08-31T12:37:13.615Z,57.54
2018-08-31T12:39:42.513Z,57.26
2018-08-31T12:42:11.545Z,57.79
2018-08-31T12:44:40.156Z,57.05
2018-08-31T12:47:08.571Z,56.55
2018-08-31T12:49:37.044Z,56.62
2018-08-31T12:52:05.808Z,56.71
2018-08-31T12:54:35.011Z,56.62
2018-08-31T12:57:03.397Z,56.38
2018-08-31T12:59:31.772Z,56.13
2018-08-31T13:02:00.139Z,55.84
2018-08-31T13:04:28.563Z,55.57
2018-08-31T13:06:56.980Z,54.88
2018-08-31T13:09:25.328Z,54.67
2018-08-31T13:11:54.832Z,54.65
2018-08-31T13:14:23.276Z,53.76
2018-08-31T13:16:51.652Z,53.23
2018-08-31T13:19:20.044Z,52.94
2018-08-31T13:21:48.735Z,53.02
2018-08-31T13:24:17.090Z,52.74
2018-08-31T13:26:45.588Z,53.01
2018-08-31T13:29:13.969Z,52.79
2018-08-31T13:31:42.333Z,52.91
2018-08-31T13:34:11.504Z,52.16
2018-08-31T13:36:39.810Z,52.42
2018-08-31T13:39:08.986Z,52.22
2018-08-31T13:41:37.323Z,50.09
2018-08-31T13:44:05.794Z,49.31
2018-08-31T13:46:34.274Z,50.50
2018-08-31T13:49:03.074Z,49.76
2018-08-31T13:51:31.419Z,49.02
2018-08-31T13:53:59.830Z,50.21
2018-08-31T13:56:28.402Z,49.82
2018-08-31T13:58:57.063Z,50.59
2018-08-31T14:01:25.440Z,50.60
2018-08-31T14:03:53.836Z,49.56
2018-08-31T14:06:22.308Z,48.53
2018-08-31T14:08:50.999Z,48.97
2018-08-31T14:11:19.488Z,48.69
2018-08-31T14:13:48.468Z,50.29
2018-08-31T14:16:16.888Z,49.98
2018-08-31T14:18:45.775Z,49.58
2018-08-31T14:21:14.827Z,47.28
2018-08-31T14:23:43.332Z,48.14
2018-08-31T14:26:11.697Z,48.57
2018-08-31T14:28:40.049Z,49.26
2018-08-31T14:31:08.528Z,48.94
2018-08-31T14:33:36.940Z,49.71
2018-08-31T14:36:05.491Z,49.68
2018-08-31T14:38:34.729Z,49.21
2018-08-31T14:41:03.079Z,49.40
2018-08-31T14:43:31.448Z,50.13
2018-08-31T14:45:59.800Z,49.01
2018-08-31T14:48:28.204Z,49.13
2018-08-31T14:50:57.095Z,48.77
2018-08-31T14:53:25.476Z,48.28
2018-08-31T14:55:53.856Z,48.78
2018-08-31T14:58:22.760Z,49.14
2018-08-31T15:00:51.157Z,49.29
2018-08-31T15:03:19.551Z,49.35
2018-08-31T15:05:48.017Z,47.90
2018-08-31T15:08:16.404Z,47.72
2018-08-31T15:10:44.868Z,47.53
2018-08-31T15:13:13.262Z,47.60
2018-08-31T15:15:41.629Z,47.26
2018-08-31T15:18:10.109Z,47.83
2018-08-31T15:20:38.513Z,47.96
2018-08-31T15:23:06.915Z,47.82
2018-08-31T15:25:35.390Z,48.68
2018-08-31T15:28:03.727Z,48.08
2018-08-31T15:30:32.096Z,47.64
2018-08-31T15:33:00.467Z,47.25
2018-08-31T15:35:28.884Z,47.09
2018-08-31T15:37:57.261Z,48.42
2018-08-31T15:40:26.243Z,47.01
2018-08-31T15:42:54.693Z,48.22
2018-08-31T15:45:23.084Z,48.05
2018-08-31T15:47:51.483Z,48.11
2018-08-31T15:50:20.203Z,49.09
2018-08-31T15:52:48.684Z,49.66
2018-08-31T15:55:17.066Z,48.63
2018-08-31T15:57:45.468Z,48.87
2018-08-31T16:00:14.409Z,49.13
2018-08-31T16:02:42.817Z,49.57
2018-08-31T16:05:11.270Z,49.31
2018-08-31T16:07:39.865Z,49.39
2018-08-31T16:10:08.666Z,49.56
2018-08-31T16:12:37.061Z,49.55
2018-08-31T16:15:05.455Z,49.27
2018-08-31T16:17:34.060Z,49.42
2018-08-31T16:20:03.016Z,49.95
2018-08-31T16:22:31.399Z,49.07
2018-08-31T16:24:59.765Z,48.97
2018-08-31T16:27:28.728Z,48.69
2018-08-31T16:29:57.780Z,48.14
2018-08-31T16:32:26.225Z,47.01
2018-08-31T16:34:54.625Z,46.92
2018-08-31T16:37:23.010Z,47.01
2018-08-31T16:39:51.373Z,46.99
2018-08-31T16:42:19.776Z,45.84
2018-08-31T16:44:48.150Z,46.75
2018-08-31T16:47:16.709Z,46.65
2018-08-31T16:52:32.218Z,46.76
2018-08-31T16:55:00.700Z,46.81
2018-08-31T16:57:29.099Z,46.80
2018-08-31T16:59:57.725Z,46.75
2018-08-31T17:02:26.589Z,46.61
2018-08-31T17:04:55.023Z,46.76
2018-08-31T17:07:23.451Z,46.73
2018-08-31T17:09:51.824Z,46.79
2018-08-31T17:12:20.248Z,47.00
2018-08-31T17:14:48.696Z,47.51
2018-08-31T17:17:17.754Z,47.62
2018-08-31T17:19:46.998Z,47.15
2018-08-31T17:22:15.397Z,47.48
2018-08-31T17:24:43.850Z,47.94
2018-08-31T17:27:17.691Z,48.59
2018-08-31T17:29:47.240Z,48.97
2018-08-31T17:32:21.295Z,48.69
2018-08-31T17:34:55.164Z,49.61
2018-08-31T17:37:29.917Z,49.47
2018-08-31T17:40:15.453Z,49.40
2018-08-31T17:42:45.670Z,49.75
2018-08-31T17:45:22.105Z,49.80
2018-08-31T17:47:59.389Z,50.04
2018-08-31T17:50:28.460Z,49.96
2018-08-31T17:52:56.957Z,50.00
2018-08-31T17:55:25.394Z,50.73
2018-08-31T17:57:53.817Z,50.40
2018-08-31T18:00:22.557Z,51.33
2018-08-31T18:02:51.286Z,51.02
2018-08-31T18:05:19.721Z,51.28
2018-08-31T18:07:52.792Z,51.49
2018-08-31T18:10:24.469Z,52.43
2018-08-31T18:12:55.101Z,51.87
2018-08-31T18:15:25.514Z,53.57
2018-08-31T18:18:05.784Z,53.15
2018-08-31T18:20:38.995Z,52.21
2018-08-31T18:23:08.289Z,53.36
2018-08-31T18:25:36.698Z,53.08
2018-08-31T18:28:05.282Z,53.11
2018-08-31T18:30:33.765Z,53.29
2018-08-31T18:33:02.239Z,53.09
2018-08-31T18:35:30.807Z,53.96
2018-08-31T18:37:59.177Z,54.13
2018-08-31T18:40:27.629Z,55.19
2018-08-31T18:42:56.522Z,54.95
2018-08-31T18:45:25.347Z,55.70
2018-08-31T18:47:53.749Z,55.43
2018-08-31T18:50:22.467Z,55.05
2018-08-31T18:52:51.112Z,54.81
2018-08-31T18:55:19.474Z,56.24
2018-08-31T18:57:47.979Z,55.60
2018-08-31T19:00:16.922Z,55.71
2018-08-31T19:02:45.292Z,56.81
2018-08-31T19:05:14.559Z,56.44
2018-08-31T19:07:42.953Z,55.89
2018-08-31T19:10:11.369Z,55.75
2018-08-31T19:12:39.740Z,56.21
2018-08-31T19:15:08.593Z,56.05
2018-08-31T19:17:36.948Z,56.27
2018-08-31T19:20:05.573Z,57.11
2018-08-31T19:22:33.931Z,56.49
2018-08-31T19:25:02.334Z,57.01
2018-08-31T19:27:30.762Z,57.29
2018-08-31T19:29:59.246Z,57.98
2018-08-31T19:32:27.606Z,57.23
2018-08-31T19:34:56.433Z,57.76
2018-08-31T19:37:24.786Z,56.99
2018-08-31T19:39:53.151Z,57.89
2018-08-31T19:42:21.511Z,57.87
2018-08-31T19:44:50.270Z,56.98
2018-08-31T19:47:18.644Z,57.75
2018-08-31T19:49:47.026Z,58.04
2018-08-31T19:52:15.661Z,58.52
2018-08-31T19:54:44.836Z,58.15
2018-08-31T19:57:13.436Z,58.86
2018-08-31T19:59:41.770Z,57.81
2018-08-31T20:02:10.168Z,59.43
2018-08-31T20:04:38.623Z,59.31
2018-08-31T20:07:07.194Z,58.50
2018-08-31T20:09:35.655Z,59.21
2018-08-31T20:12:04.656Z,58.96
2018-08-31T20:14:33.655Z,58.96
2018-08-31T20:17:02.029Z,58.68
2018-08-31T20:19:31.016Z,59.26
2018-08-31T20:22:00.607Z,59.34
2018-08-31T20:24:28.985Z,60.17
2018-08-31T20:26:57.402Z,59.69
2018-08-31T20:29:26.008Z,60.03
2018-08-31T20:31:56.639Z,60.22
2018-08-31T20:34:25.334Z,60.96
2018-08-31T20:36:54.556Z,59.96
2018-08-31T20:39:23.609Z,59.48
2018-08-31T20:41:52.096Z,60.38
2018-08-31T20:44:20.550Z,60.83
2018-08-31T20:46:48.925Z,59.97
2018-08-31T20:49:17.307Z,60.37
2018-08-31T20:51:45.697Z,60.92
2018-08-31T20:54:14.730Z,60.05
2018-08-31T20:56:43.145Z,60.53
2018-08-31T20:59:11.500Z,61.46
2018-08-31T21:01:40.007Z,61.52
2018-08-31T21:04:08.481Z,61.74
2018-08-31T21:06:36.839Z,60.80
2018-08-31T21:09:07.610Z,60.60
2018-08-31T21:11:35.943Z,61.04
2018-08-31T21:14:04.320Z,61.41
2018-08-31T21:16:32.648Z,62.75
2018-08-31T21:19:00.964Z,63.36
2018-08-31T21:21:29.854Z,63.15
2018-08-31T21:23:58.288Z,62.34
2018-08-31T21:26:26.676Z,63.71
2018-08-31T21:28:55.014Z,63.19
2018-08-31T21:31:23.462Z,63.58
2018-08-31T21:33:51.879Z,63.95
2018-08-31T21:36:20.301Z,64.65
2018-08-31T21:38:48.631Z,63.57
2018-08-31T21:41:16.982Z,63.90
2018-08-31T21:43:45.313Z,63.53
2018-08-31T21:46:13.676Z,65.00
2018-08-31T21:48:42.018Z,64.16
2018-08-31T21:51:10.365Z,64.65
2018-08-31T21:53:38.694Z,63.67
2018-08-31T21:56:07.123Z,64.48
2018-08-31T21:58:35.475Z,65.06
2018-08-31T22:01:08.941Z,64.70
2018-08-31T22:03:37.246Z,64.27
2018-08-31T22:06:05.599Z,64.28
2018-08-31T22:08:33.924Z,64.29
2018-08-31T22:11:02.249Z,65.22
2018-08-31T22:13:30.815Z,64.50
2018-08-31T22:15:59.135Z,65.21
2018-08-31T22:18:27.458Z,65.21
2018-08-31T22:20:55.776Z,65.09
2018-08-31T22:23:24.139Z,65.77
2018-08-31T22:25:52.457Z,64.85
2018-08-31T22:28:20.768Z,65.17
2018-08-31T22:30:49.657Z,65.62
2018-08-31T22:33:18.051Z,64.67
2018-08-31T22:35:46.443Z,65.49
2018-08-31T22:38:14.764Z,65.57
2018-08-31T22:40:43.174Z,66.15
2018-08-31T22:43:11.628Z,65.00
2018-08-31T22:45:40.004Z,64.82
2018-08-31T22:48:08.352Z,65.26
2018-08-31T22:50:36.721Z,65.28
2018-08-31T22:53:05.087Z,65.03
2018-08-31T22:55:33.404Z,65.18
2018-08-31T22:58:02.025Z,65.57
2018-08-31T23:00:31.398Z,65.35
2018-08-31T23:02:59.784Z,65.67
2018-08-31T23:05:28.152Z,64.78
2018-08-31T23:08:01.480Z,64.27
2018-08-31T23:10:29.865Z,65.42
2018-08-31T23:12:58.239Z,65.97
2018-08-31T23:15:26.577Z,65.75
2018-08-31T23:17:55.284Z,66.43
2018-08-31T23:20:23.641Z,66.36
2018-08-31T23:22:56.171Z,66.20
2018-08-31T23:25:29.774Z,65.10
2018-08-31T23:27:58.125Z,65.72
2018-08-31T23:30:26.489Z,65.87
2018-08-31T23:32:55.128Z,66.12
2018-08-31T23:35:23.477Z,65.35
2018-08-31T23:37:51.840Z,66.16
2018-08-31T23:40:20.906Z,66.62
2018-08-31T23:42:49.279Z,66.89
2018-08-31T23:45:18.173Z,67.05
2018-08-31T23:47:46.818Z,67.10
2018-08-31T23:50:15.396Z,66.98
2018-08-31T23:52:44.364Z,67.45
2018-08-31T23:55:12.741Z,67.44
2018-08-31T23:57:41.092Z,66.14
